CheckWX is a tool to help pilots better visualize weather data.  It is not intended as a substitute for an official pre-flight weather briefing.

18:16:51 UTC

KMSO TAF
Missoula International Airport
Missoula, Montana, USA
KMSO 241720Z 2418/2518 31012G18KT P6SM FEW080 FM250300 34005KT P6SM SKC FM251200 10004KT P6SM SCT120

Apr-24@
18:00 UTC

Apr-24 @ 18:00 UTC

Apr-25@
03:00 UTC

Apr-25 @ 03:00 UTC

KMSO 241720Z 2418/2518 31012G18KT P6SM FEW080
Wind
  • 310° at 12 KTS
  • {Gusting to 18 KTS
Cloud Levels
  • Few at 8,000' AGL

Apr-25@
03:00 UTC

Apr-25 @ 03:00 UTC

Apr-25@
12:00 UTC

Apr-25 @ 12:00 UTC

FM250300 34005KT P6SM SKC

From

From Standard forecast or significant change

Wind
  • 340° at 5 KTS
Cloud Levels
  • Clear skies

Apr-25@
12:00 UTC

Apr-25 @ 12:00 UTC

Apr-25@
18:00 UTC

Apr-25 @ 18:00 UTC

FM251200 10004KT P6SM SCT120

From

From Standard forecast or significant change

Wind
  • 100° at 4 KTS
Cloud Levels
  • Scattered at 12,000' AGL